Terminal Aerodrome Forecast
Issued by NWS

Home | Current Version | Previous Version | Text Only | Print | Product List | Glossary On
Versions: 1 2 3 4 5 6 7 8 9 10 11 12 13 14
000
FTUS42 TJSJ 061700 RRA
TAFNCM
TAF
TNCM 061740Z 0618/0718 10013G24KT P6SM VCSH SCT025 SCT040
     FM062300 09015KT P6SM FEW018 FEW025
     FM071300 09014G22KT P6SM FEW022=

USA.gov is the U.S. government's official web portal to all federal, state and local government web resources and services.